createdAt,value
2023-02-27T00:04:29.827Z,9.30
2023-02-27T00:09:32.146Z,8.73
2023-02-27T00:14:34.858Z,7.80
2023-02-27T00:19:37.260Z,8.80
2023-02-27T00:24:39.564Z,8.50
2023-02-27T00:29:41.907Z,13.97
2023-02-27T00:34:44.683Z,6.90
2023-02-27T00:39:47.435Z,6.13
2023-02-27T00:44:49.851Z,5.17
2023-02-27T00:49:52.311Z,5.43
2023-02-27T00:54:54.623Z,6.83
2023-02-27T00:59:57.048Z,5.30
2023-02-27T01:04:59.642Z,9.07
2023-02-27T01:10:02.145Z,8.10
2023-02-27T01:15:06.124Z,8.43
2023-02-27T01:20:12.073Z,7.10
2023-02-27T01:25:14.762Z,8.53
2023-02-27T01:30:18.567Z,5.27
2023-02-27T01:35:21.251Z,5.97
2023-02-27T01:40:24.727Z,8.60
2023-02-27T01:45:34.632Z,7.60
2023-02-27T01:50:42.012Z,5.17
2023-02-27T01:55:45.611Z,5.60
2023-02-27T02:00:49.531Z,7.60
2023-02-27T02:05:54.523Z,7.00
2023-02-27T02:10:58.282Z,6.80
2023-02-27T02:16:18.677Z,9.60
2023-02-27T02:21:42.501Z,8.67
2023-02-27T02:27:10.281Z,13.03
2023-02-27T02:32:48.432Z,13.67
2023-02-27T02:38:15.186Z,7.07
2023-02-27T02:43:30.438Z,8.43
2023-02-27T02:48:46.897Z,13.33
2023-02-27T02:53:59.762Z,17.50
2023-02-27T02:59:41.788Z,11.07
2023-02-27T03:04:56.144Z,14.57
2023-02-27T03:10:33.721Z,10.33
2023-02-27T03:15:55.237Z,6.77
2023-02-27T03:21:05.039Z,8.30
2023-02-27T03:26:08.685Z,5.93
2023-02-27T03:31:21.300Z,6.60
2023-02-27T03:36:49.665Z,8.33
2023-02-27T03:42:14.776Z,5.33
2023-02-27T03:47:38.032Z,7.50
2023-02-27T03:52:41.051Z,9.13
2023-02-27T03:57:46.447Z,8.83
2023-02-27T04:02:51.638Z,7.33
2023-02-27T04:08:30.817Z,9.67
2023-02-27T04:14:16.783Z,17.30
2023-02-27T04:19:29.667Z,25.27
2023-02-27T04:25:13.495Z,13.70
2023-02-27T04:30:38.792Z,11.20
2023-02-27T04:36:03.721Z,9.47
2023-02-27T04:41:27.448Z,6.20
2023-02-27T04:46:32.093Z,8.43
2023-02-27T04:51:52.346Z,6.20
2023-02-27T04:56:59.599Z,9.77
2023-02-27T05:02:13.134Z,16.50
2023-02-27T05:07:20.345Z,12.13
2023-02-27T05:12:25.704Z,32.47
2023-02-27T05:17:31.055Z,15.90
2023-02-27T05:22:49.501Z,14.60
2023-02-27T05:27:59.255Z,16.13
2023-02-27T05:33:12.761Z,11.90
2023-02-27T05:38:23.556Z,11.87
2023-02-27T05:43:31.556Z,12.43
2023-02-27T05:48:41.330Z,9.80
2023-02-27T05:53:51.138Z,9.03
2023-02-27T05:59:04.394Z,11.70
2023-02-27T06:04:06.745Z,9.17
2023-02-27T06:09:09.661Z,9.43
2023-02-27T06:14:11.984Z,9.83
2023-02-27T06:19:14.353Z,10.17
2023-02-27T06:24:16.727Z,24.57
2023-02-27T06:29:19.056Z,26.13
2023-02-27T06:34:21.454Z,18.50
2023-02-27T06:39:23.969Z,13.50
2023-02-27T06:44:26.953Z,18.13
2023-02-27T06:49:29.284Z,16.63
2023-02-27T06:54:31.719Z,15.00
2023-02-27T06:59:34.044Z,24.37
2023-02-27T07:04:36.525Z,25.23
2023-02-27T07:09:38.963Z,36.93
2023-02-27T07:14:41.462Z,23.10
2023-02-27T07:19:43.840Z,38.83
2023-02-27T07:24:46.229Z,26.20
2023-02-27T07:29:48.545Z,15.23
2023-02-27T07:34:50.960Z,20.43
2023-02-27T07:39:53.382Z,36.70
2023-02-27T07:44:55.872Z,20.77
2023-02-27T07:49:58.281Z,16.23
2023-02-27T07:55:00.628Z,27.50
2023-02-27T08:00:06.588Z,41.00
2023-02-27T08:05:14.193Z,23.70
2023-02-27T08:10:16.954Z,25.83
2023-02-27T08:15:19.360Z,29.67
2023-02-27T08:20:22.808Z,25.80
2023-02-27T08:25:25.257Z,30.70
2023-02-27T08:30:27.983Z,24.03
2023-02-27T08:35:30.610Z,24.17
2023-02-27T08:40:33.302Z,20.83
2023-02-27T08:45:35.963Z,26.20
2023-02-27T08:50:38.479Z,18.67
2023-02-27T08:55:40.977Z,38.40
2023-02-27T09:00:43.562Z,27.07
2023-02-27T09:05:47.877Z,37.73
2023-02-27T09:10:50.519Z,25.23
2023-02-27T09:15:53.895Z,16.30
2023-02-27T09:20:56.604Z,24.97
2023-02-27T09:25:58.943Z,39.73
2023-02-27T09:31:06.126Z,111.83
2023-02-27T09:36:08.878Z,43.07
2023-02-27T09:41:31.519Z,14.73
2023-02-27T09:46:34.263Z,14.90
2023-02-27T09:51:36.594Z,20.60
2023-02-27T09:57:13.194Z,29.67
2023-02-27T10:02:29.327Z,10.23
2023-02-27T10:07:44.525Z,12.57
2023-02-27T10:13:26.656Z,9.67
2023-02-27T10:18:33.505Z,22.53
2023-02-27T10:24:00.656Z,10.97
2023-02-27T10:29:19.061Z,14.93
2023-02-27T10:34:22.602Z,6.53
2023-02-27T10:39:25.736Z,6.17
2023-02-27T10:44:28.177Z,10.93
2023-02-27T10:49:32.647Z,23.73
2023-02-27T10:54:35.066Z,8.23
2023-02-27T10:59:40.479Z,4.33
2023-02-27T11:04:54.118Z,8.37
2023-02-27T11:10:27.936Z,12.27
2023-02-27T11:15:37.297Z,10.73
2023-02-27T11:20:43.415Z,13.20
2023-02-27T11:25:46.409Z,34.57
2023-02-27T11:31:03.850Z,11.90
2023-02-27T11:36:07.185Z,62.40
2023-02-27T11:41:11.054Z,9.00
2023-02-27T11:46:46.993Z,105.80
2023-02-27T11:52:12.320Z,58.70
2023-02-27T11:57:34.904Z,22.73
2023-02-27T12:02:51.076Z,17.60
2023-02-27T12:08:11.919Z,5.27
2023-02-27T12:13:19.537Z,13.97
2023-02-27T12:18:26.043Z,9.10
2023-02-27T12:23:45.100Z,38.20
2023-02-27T12:28:53.523Z,6.40
2023-02-27T12:34:02.554Z,12.83
2023-02-27T12:39:05.357Z,89.57
2023-02-27T12:44:18.998Z,43.30
2023-02-27T12:49:42.859Z,36.47
2023-02-27T12:54:57.761Z,50.43
2023-02-27T13:00:17.302Z,35.97
2023-02-27T13:05:32.519Z,17.87
2023-02-27T13:10:42.018Z,32.97
2023-02-27T13:15:53.840Z,66.93
2023-02-27T13:21:22.267Z,30.80
2023-02-27T13:26:34.778Z,59.47
2023-02-27T13:31:48.811Z,17.87
2023-02-27T13:37:02.847Z,11.57
2023-02-27T13:42:25.430Z,18.47
2023-02-27T13:47:30.706Z,42.00
2023-02-27T13:52:36.355Z,26.00
2023-02-27T13:57:39.467Z,54.07
2023-02-27T14:02:58.270Z,66.73
2023-02-27T14:08:23.673Z,117.93
2023-02-27T14:13:51.128Z,197.23
2023-02-27T14:18:58.738Z,49.33
2023-02-27T14:24:01.191Z,133.57
2023-02-27T14:29:03.912Z,358.13
2023-02-27T14:34:08.288Z,233.93
2023-02-27T14:39:21.581Z,267.47
2023-02-27T14:44:27.316Z,145.60
2023-02-27T14:49:32.795Z,126.27
2023-02-27T14:54:35.198Z,119.97
2023-02-27T14:59:49.178Z,72.43
2023-02-27T15:05:13.726Z,53.50
2023-02-27T15:10:25.133Z,38.07
2023-02-27T15:15:27.744Z,71.73
2023-02-27T15:20:32.925Z,63.13
2023-02-27T15:25:38.509Z,75.80
2023-02-27T15:30:41.005Z,99.93
2023-02-27T15:35:45.491Z,68.50
2023-02-27T15:40:47.956Z,116.53
2023-02-27T15:45:51.165Z,42.27
2023-02-27T15:51:03.780Z,78.73
2023-02-27T15:56:10.838Z,86.03
2023-02-27T16:01:22.486Z,58.93
2023-02-27T16:06:37.544Z,29.20
2023-02-27T16:11:39.937Z,50.97
2023-02-27T16:16:54.666Z,69.77
2023-02-27T16:22:18.064Z,83.87
2023-02-27T16:27:23.930Z,79.93
2023-02-27T16:32:34.810Z,64.67
2023-02-27T16:37:39.384Z,47.13
2023-02-27T16:42:42.138Z,75.27
2023-02-27T16:47:45.126Z,262.23
2023-02-27T16:52:47.685Z,279.00
2023-02-27T16:57:50.093Z,312.27
2023-02-27T17:02:52.564Z,160.57
2023-02-27T17:07:54.905Z,279.50
2023-02-27T17:12:57.302Z,340.20
2023-02-27T17:17:59.775Z,255.70
2023-02-27T17:23:02.222Z,226.40
2023-02-27T17:28:05.700Z,193.50
2023-02-27T17:33:08.128Z,234.40
2023-02-27T17:38:10.600Z,212.30
2023-02-27T17:43:13.009Z,92.20
2023-02-27T17:48:15.403Z,121.20
2023-02-27T17:53:17.825Z,103.43
2023-02-27T17:58:20.348Z,96.03
2023-02-27T18:03:23.115Z,86.47
2023-02-27T18:08:25.679Z,79.67
2023-02-27T18:13:28.657Z,113.27
2023-02-27T18:18:31.029Z,167.93
2023-02-27T18:23:33.691Z,160.20
2023-02-27T18:28:36.157Z,98.80
2023-02-27T18:33:38.512Z,73.57
2023-02-27T18:38:41.817Z,70.03
2023-02-27T18:43:44.733Z,93.87
2023-02-27T18:48:47.198Z,165.60
2023-02-27T18:53:50.513Z,200.77
2023-02-27T18:58:53.603Z,159.67
2023-02-27T19:04:03.679Z,163.60
2023-02-27T19:09:07.698Z,133.13
2023-02-27T19:14:13.413Z,143.97
2023-02-27T19:19:15.827Z,115.00
2023-02-27T19:24:18.278Z,69.80
2023-02-27T19:29:20.799Z,67.70
2023-02-27T19:34:23.124Z,61.60
2023-02-27T19:39:25.488Z,74.33
2023-02-27T19:44:27.829Z,43.03
2023-02-27T19:49:30.124Z,38.93
2023-02-27T19:54:33.167Z,39.70
2023-02-27T19:59:35.940Z,44.13
2023-02-27T20:04:38.275Z,231.17
2023-02-27T20:09:40.635Z,280.43
2023-02-27T20:14:43.005Z,279.90
2023-02-27T20:19:45.405Z,348.03
2023-02-27T20:24:47.843Z,425.13
2023-02-27T20:29:57.484Z,284.47
2023-02-27T20:34:59.858Z,240.10
2023-02-27T20:40:04.189Z,247.13
2023-02-27T20:45:07.116Z,246.80
2023-02-27T20:50:11.352Z,217.03
2023-02-27T20:55:13.692Z,215.13
2023-02-27T21:00:16.544Z,153.93
2023-02-27T21:05:19.643Z,274.80
2023-02-27T21:10:22.066Z,212.30
2023-02-27T21:15:24.504Z,174.50
2023-02-27T21:20:26.845Z,134.23
2023-02-27T21:25:29.168Z,129.03
2023-02-27T21:30:32.227Z,149.90
2023-02-27T21:35:34.635Z,151.23
2023-02-27T21:40:37.007Z,160.80
2023-02-27T21:45:47.485Z,148.27
2023-02-27T21:50:50.632Z,147.43
2023-02-27T21:55:54.632Z,137.60
2023-02-27T22:00:57.087Z,102.53
2023-02-27T22:05:59.926Z,95.43
2023-02-27T22:11:02.458Z,107.87
2023-02-27T22:16:11.083Z,84.37
2023-02-27T22:21:17.197Z,111.27
2023-02-27T22:26:24.283Z,104.97
2023-02-27T22:31:32.919Z,114.93
2023-02-27T22:36:36.990Z,90.77
2023-02-27T22:41:42.000Z,97.53
2023-02-27T22:46:47.452Z,96.73
2023-02-27T22:51:51.910Z,75.73
2023-02-27T22:56:57.912Z,87.57
2023-02-27T23:02:00.571Z,65.00
2023-02-27T23:07:03.473Z,75.90
2023-02-27T23:12:06.442Z,88.20
2023-02-27T23:17:08.843Z,117.60
2023-02-27T23:22:11.173Z,114.13
2023-02-27T23:27:25.415Z,99.30
2023-02-27T23:32:28.449Z,88.90
2023-02-27T23:37:30.764Z,77.47
2023-02-27T23:42:52.258Z,80.90
2023-02-27T23:48:00.528Z,81.63
2023-02-27T23:53:03.249Z,90.87
2023-02-27T23:58:07.328Z,104.17
